Time;durP1;ratioP1;P1;durP2;ratioP2;P2;SDS_P1;SDS_P2;PMS_P1;PMS_P2;Temp;Humidity;BMP_temperature;BMP_pressure;BME280_temperature;BME280_humidity;BME280_pressure;Samples;Min_cycle;Max_cycle;Signal;HPM_P1;HPM_P2
2023/10/02 00:00:40;;;;;;;;;;;;;;;24.31;54.61;101313.09;7401469;19;1657;-40
2023/10/02 00:03:09;;;;;;;;;;;;;;;24.40;54.63;101330.22;7400226;19;1503;-40
2023/10/02 00:05:50;;;;;;;;;;;;;;;24.34;54.60;101311.91;7400160;19;1502;-41
2023/10/02 00:08:31;;;;;;;;;;;;;;;24.32;54.75;101313.94;7399926;19;1304;-41
2023/10/02 00:11:05;;;;;;;;;;;;;;;24.31;54.46;101310.38;7398048;19;1876;-41
2023/10/02 00:13:32;;;;;;;;;;;;;;;24.34;54.38;101318.16;7401323;19;1245;-41
2023/10/02 00:16:00;;;;;;;;;;;;;;;24.32;54.28;101312.06;7396939;19;1320;-41
2023/10/02 00:18:31;;;;;;;;;;;;;;;24.30;54.61;101316.78;7398868;19;1644;-40
2023/10/02 00:23:59;;;;;;;;;;;;;;;23.66;54.45;101229.63;7396105;19;1981;-41
2023/10/02 00:26:27;;;;;;;;;;;;;;;24.18;56.15;101321.59;7398932;19;1260;-41
2023/10/02 00:28:57;;;;;;;;;;;;;;;24.20;55.75;101322.28;7399408;19;1467;-41
2023/10/02 00:31:36;;;;;;;;;;;;;;;24.21;55.66;101324.00;7398638;19;1858;-41
2023/10/02 00:34:04;;;;;;;;;;;;;;;24.19;55.30;101325.13;7399095;19;1550;-40
2023/10/02 00:36:36;;;;;;;;;;;;;;;24.18;55.72;101318.88;7399638;19;1913;-40
2023/10/02 00:39:24;;;;;;;;;;;;;;;24.20;55.83;101327.69;7399671;19;1308;-41
2023/10/02 00:44:51;;;;;;;;;;;;;;;24.11;55.63;101323.19;7401147;19;1366;-40
2023/10/02 00:47:35;;;;;;;;;;;;;;;24.11;55.76;101325.91;7400259;19;1582;-41
2023/10/02 00:50:08;;;;;;;;;;;;;;;24.14;55.64;101339.13;7399931;19;1877;-41
2023/10/02 00:52:40;;;;;;;;;;;;;;;24.14;55.73;101332.88;7384683;19;1613;-41
2023/10/02 00:55:10;;;;;;;;;;;;;;;24.12;55.67;101334.88;7399063;19;1646;-41
2023/10/02 00:57:37;;;;;;;;;;;;;;;24.10;55.75;101337.72;7398760;19;1232;-40
2023/10/02 01:00:17;;;;;;;;;;;;;;;24.12;55.88;101333.03;7398968;19;1391;-41
2023/10/02 01:02:45;;;;;;;;;;;;;;;24.23;55.58;101345.44;7399752;19;1398;-41
2023/10/02 01:05:16;;;;;;;;;;;;;;;24.25;55.55;101342.59;7398170;19;1315;-40
2023/10/02 01:07:53;;;;;;;;;;;;;;;24.19;55.37;101352.16;7398300;19;1681;-41
2023/10/02 01:10:23;;;;;;;;;;;;;;;24.19;55.69;101349.44;7396867;19;1840;-41
2023/10/02 01:12:53;;;;;;;;;;;;;;;24.15;55.78;101361.56;7398529;19;1508;-40
2023/10/02 01:15:26;;;;;;;;;;;;;;;24.13;55.89;101367.16;7398743;19;1408;-41
2023/10/02 01:17:55;;;;;;;;;;;;;;;24.15;55.48;101357.03;7397753;19;1527;-40
2023/10/02 01:20:32;;;;;;;;;;;;;;;24.11;55.87;101354.78;7399074;19;1467;-40
2023/10/02 01:23:16;;;;;;;;;;;;;;;24.13;55.56;101363.59;7399613;19;1537;-41
2023/10/02 01:25:47;;;;;;;;;;;;;;;24.10;55.63;101356.66;7397973;19;1951;-41
2023/10/02 01:28:20;;;;;;;;;;;;;;;24.07;55.58;101356.94;7398360;19;1748;-41
2023/10/02 01:30:50;;;;;;;;;;;;;;;24.11;55.35;101355.63;7397268;19;1845;-41
2023/10/02 01:33:22;;;;;;;;;;;;;;;24.07;55.50;101353.41;7396855;19;1556;-40
2023/10/02 01:35:51;;;;;;;;;;;;;;;24.06;55.72;101351.72;7397044;19;1538;-40
2023/10/02 01:38:29;;;;;;;;;;;;;;;24.06;55.39;101357.13;7398057;19;1365;-41
2023/10/02 01:41:06;;;;;;;;;;;;;;;24.01;55.23;101361.13;7397016;19;1629;-41
2023/10/02 01:43:38;;;;;;;;;;;;;;;24.02;55.47;101353.88;7396471;19;1558;-41
2023/10/02 01:46:07;;;;;;;;;;;;;;;24.03;55.38;101358.25;7394247;19;1522;-41
2023/10/02 01:48:40;;;;;;;;;;;;;;;24.07;55.69;101359.66;7396078;19;1340;-40
2023/10/02 01:51:20;;;;;;;;;;;;;;;24.02;55.48;101367.38;7380175;19;1842;-40
2023/10/02 01:53:49;;;;;;;;;;;;;;;23.99;55.41;101367.69;7397497;19;1277;-40
2023/10/02 01:56:20;;;;;;;;;;;;;;;24.01;55.74;101349.47;7396456;19;1553;-40
2023/10/02 01:58:50;;;;;;;;;;;;;;;24.01;55.66;101350.34;7395017;19;2435;-41
2023/10/02 02:01:20;;;;;;;;;;;;;;;24.02;55.58;101361.97;7397827;19;1432;-40
2023/10/02 02:03:49;;;;;;;;;;;;;;;23.99;55.47;101352.34;7397436;19;1368;-41
2023/10/02 02:06:20;;;;;;;;;;;;;;;24.01;55.73;101361.13;7396545;19;1449;-40
2023/10/02 02:08:53;;;;;;;;;;;;;;;24.01;55.64;101354.88;7397081;19;1367;-41
2023/10/02 02:11:26;;;;;;;;;;;;;;;24.02;55.52;101360.13;7396811;19;1850;-40
2023/10/02 02:13:53;;;;;;;;;;;;;;;24.01;55.78;101354.88;7396132;19;1404;-40
2023/10/02 02:16:25;;;;;;;;;;;;;;;23.99;55.55;101351.47;7396116;19;1316;-40
2023/10/02 02:18:55;;;;;;;;;;;;;;;23.97;55.86;101367.84;7395363;19;1292;-40
2023/10/02 02:21:28;;;;;;;;;;;;;;;23.98;55.91;101366.84;7395199;19;1338;-41
2023/10/02 02:24:07;;;;;;;;;;;;;;;24.01;55.64;101360.25;7396341;19;1495;-41
2023/10/02 02:26:39;;;;;;;;;;;;;;;23.98;55.56;101349.78;7396408;19;1617;-41
2023/10/02 02:29:21;;;;;;;;;;;;;;;24.02;55.61;101372.78;7395387;19;1447;-41
2023/10/02 02:31:49;;;;;;;;;;;;;;;24.01;55.86;101355.75;7393943;19;1888;-41
2023/10/02 02:34:20;;;;;;;;;;;;;;;23.98;55.96;101368.69;7396035;19;1816;-41
2023/10/02 02:36:49;;;;;;;;;;;;;;;24.00;55.51;101375.63;7397198;19;1684;-41
2023/10/02 02:39:21;;;;;;;;;;;;;;;23.96;55.83;101373.41;7394894;19;1763;-45
2023/10/02 02:42:08;;;;;;;;;;;;;;;24.02;55.77;101384.44;7395969;19;1307;-41
2023/10/02 02:44:39;;;;;;;;;;;;;;;23.99;55.56;101379.34;7396283;19;1355;-41
2023/10/02 02:47:09;;;;;;;;;;;;;;;23.97;55.72;101369.69;7396633;19;1547;-41
2023/10/02 02:49:58;;;;;;;;;;;;;;;23.96;55.50;101378.81;7396119;19;2552;-41
2023/10/02 02:52:27;;;;;;;;;;;;;;;23.99;55.58;101394.69;7380380;19;2164;-40
2023/10/02 02:55:04;;;;;;;;;;;;;;;23.99;55.98;101392.00;7395937;19;1482;-41
2023/10/02 02:57:38;;;;;;;;;;;;;;;23.98;55.97;101376.81;7396217;19;1934;-41
2023/10/02 03:02:52;;;;;;;;;;;;;;;24.07;55.09;101397.47;7397584;19;1882;-40
2023/10/02 03:05:22;;;;;;;;;;;;;;;24.05;55.68;101399.47;7395782;19;1910;-41
2023/10/02 03:07:54;;;;;;;;;;;;;;;24.01;55.73;101392.69;7394997;19;1470;-41
2023/10/02 03:10:23;;;;;;;;;;;;;;;24.02;55.61;101397.94;7394638;19;1854;-40
2023/10/02 03:12:53;;;;;;;;;;;;;;;24.05;55.59;101390.53;7395177;19;1519;-41
2023/10/02 03:15:45;;;;;;;;;;;;;;;24.00;55.84;101394.53;7394031;19;1456;-40
2023/10/02 03:20:58;;;;;;;;;;;;;;;24.05;55.65;101399.47;7384358;19;1456;-41
2023/10/02 03:23:28;;;;;;;;;;;;;;;24.04;55.52;101400.50;7384965;19;1443;-41
2023/10/02 03:25:56;;;;;;;;;;;;;;;24.05;55.72;101401.34;7386510;19;1484;-41
2023/10/02 03:28:32;;;;;;;;;;;;;;;24.09;55.62;101405.44;7387307;19;1447;-41
2023/10/02 03:31:01;;;;;;;;;;;;;;;24.08;55.48;101410.00;7386826;19;1873;-41
2023/10/02 03:33:31;;;;;;;;;;;;;;;24.04;56.01;101414.00;7385628;19;1989;-41
2023/10/02 03:36:07;;;;;;;;;;;;;;;24.24;54.85;101411.16;7387607;19;1568;-41
2023/10/02 03:38:36;;;;;;;;;;;;;;;24.22;54.85;101417.56;7387353;19;1919;-41
2023/10/02 03:41:06;;;;;;;;;;;;;;;24.26;54.80;101428.06;7386713;19;1472;-41
2023/10/02 03:43:43;;;;;;;;;;;;;;;24.23;55.07;101429.22;7385934;19;1351;-40
2023/10/02 03:46:15;;;;;;;;;;;;;;;24.28;54.90;101420.66;7386739;19;1637;-41
2023/10/02 03:48:50;;;;;;;;;;;;;;;24.38;54.45;101422.25;7385446;19;1372;-40
2023/10/02 03:51:35;;;;;;;;;;;;;;;24.35;54.80;101433.41;7370965;19;2255;-40
2023/10/02 03:54:17;;;;;;;;;;;;;;;24.16;55.44;101434.41;7384903;19;1396;-40
2023/10/02 03:56:47;;;;;;;;;;;;;;;24.13;52.93;101428.44;7379925;19;1384;-40
2023/10/02 03:59:21;;;;;;;;;;;;;;;23.88;50.68;101443.56;7381229;19;1399;-40
2023/10/02 04:01:50;;;;;;;;;;;;;;;24.08;51.53;101450.53;7385007;19;1518;-41
2023/10/02 04:04:24;;;;;;;;;;;;;;;24.13;53.28;101450.94;7386729;19;1412;-41
2023/10/02 04:06:53;;;;;;;;;;;;;;;24.11;53.83;101457.47;7387399;19;1491;-41
2023/10/02 04:09:24;;;;;;;;;;;;;;;24.04;53.86;101453.69;7388115;19;1751;-40
2023/10/02 04:11:53;;;;;;;;;;;;;;;23.98;53.92;101457.84;7394749;19;1852;-41
2023/10/02 04:14:31;;;;;;;;;;;;;;;24.03;53.92;101474.44;7394702;19;1827;-40
2023/10/02 04:17:10;;;;;;;;;;;;;;;24.02;53.79;101481.69;7394968;19;1613;-40
2023/10/02 04:19:36;;;;;;;;;;;;;;;24.09;53.58;101492.75;7386813;19;2169;-41
2023/10/02 04:22:06;;;;;;;;;;;;;;;24.15;53.20;101494.88;7389865;19;1951;-41
2023/10/02 04:24:51;;;;;;;;;;;;;;;24.04;53.81;101497.75;7396089;19;1784;-40
2023/10/02 04:27:25;;;;;;;;;;;;;;;24.19;52.84;101501.66;7398681;19;1674;-40
2023/10/02 04:30:18;;;;;;;;;;;;;;;24.11;53.37;101501.53;7400606;19;1424;-40
2023/10/02 04:32:51;;;;;;;;;;;;;;;24.00;53.58;101520.69;7396991;19;1870;-41
2023/10/02 04:38:07;;;;;;;;;;;;;;;24.02;54.10;101511.41;7400711;19;1775;-40
2023/10/02 04:40:37;;;;;;;;;;;;;;;24.09;53.92;101519.75;7399457;19;1729;-41
2023/10/02 04:43:19;;;;;;;;;;;;;;;24.08;53.75;101534.28;7400278;19;1792;-40
2023/10/02 04:45:47;;;;;;;;;;;;;;;23.60;46.17;101519.13;7400177;19;1338;-40
2023/10/02 04:48:16;;;;;;;;;;;;;;;23.36;46.97;101523.19;7397502;19;1467;-40
2023/10/02 04:50:45;;;;;;;;;;;;;;;22.72;45.96;101521.06;7400124;19;1292;-40
2023/10/02 04:53:22;;;;;;;;;;;;;;;22.51;46.17;101526.63;7379814;19;1423;-40
2023/10/02 04:56:07;;;;;;;;;;;;;;;22.43;45.50;101535.41;7396026;19;1398;-40
2023/10/02 04:58:39;;;;;;;;;;;;;;;22.34;44.93;101526.31;7396025;19;1462;-40
2023/10/02 05:01:24;;;;;;;;;;;;;;;22.49;44.82;101550.16;7395993;19;1230;-40
2023/10/02 05:03:52;;;;;;;;;;;;;;;22.55;44.44;101549.59;7395471;19;1720;-40
2023/10/02 05:06:42;;;;;;;;;;;;;;;22.54;44.11;101550.56;7398356;19;1601;-40
2023/10/02 05:09:33;;;;;;;;;;;;;;;22.33;44.23;101556.94;7390424;19;2119;-40
2023/10/02 05:12:04;;;;;;;;;;;;;;;22.35;44.19;101559.50;7394380;19;1859;-40
2023/10/02 05:14:34;;;;;;;;;;;;;;;22.21;44.07;101553.47;7400028;19;1482;-40
2023/10/02 05:17:19;;;;;;;;;;;;;;;22.07;44.29;101572.72;7397096;19;1882;-39
2023/10/02 05:20:02;;;;;;;;;;;;;;;21.60;44.58;101570.50;7399575;19;1766;-40
2023/10/02 05:22:28;;;;;;;;;;;;;;;21.24;45.16;101579.88;7398741;19;1941;-41
2023/10/02 05:24:58;;;;;;;;;;;;;;;21.11;45.31;101580.06;7399430;19;1463;-40
2023/10/02 05:27:29;;;;;;;;;;;;;;;21.01;45.70;101576.44;7395993;19;1360;-39
2023/10/02 05:29:58;;;;;;;;;;;;;;;21.23;45.25;101588.94;7398229;19;1605;-40
2023/10/02 05:32:31;;;;;;;;;;;;;;;21.52;45.01;101577.53;7388864;19;1846;-40
2023/10/02 05:35:16;;;;;;;;;;;;;;;21.75;44.54;101589.84;7397886;19;1506;-40
2023/10/02 05:37:45;;;;;;;;;;;;;;;21.88;44.71;101583.38;7395757;19;1598;-40
2023/10/02 05:40:37;;;;;;;;;;;;;;;22.05;44.43;101604.31;7397517;19;1819;-40
2023/10/02 05:43:17;;;;;;;;;;;;;;;22.15;44.35;101586.34;7396340;19;1460;-40
2023/10/02 05:45:50;;;;;;;;;;;;;;;22.14;44.32;101608.03;7396770;19;1312;-40
2023/10/02 05:48:27;;;;;;;;;;;;;;;22.18;44.54;101596.84;7396730;19;1220;-40
2023/10/02 05:50:56;;;;;;;;;;;;;;;22.16;44.37;101587.19;7394412;19;1514;-40
2023/10/02 05:53:26;;;;;;;;;;;;;;;22.14;44.53;101605.31;7376237;19;1845;-40
2023/10/02 05:56:12;;;;;;;;;;;;;;;22.20;44.47;101611.03;7395175;19;1466;-40
2023/10/02 05:58:41;;;;;;;;;;;;;;;22.12;44.50;101612.69;7393550;19;1221;-40
2023/10/02 06:01:18;;;;;;;;;;;;;;;22.05;44.42;101612.41;7390942;19;1696;-40
2023/10/02 06:03:56;;;;;;;;;;;;;;;22.02;44.61;101609.94;7325479;19;12767;-41
2023/10/02 06:06:25;;;;;;;;;;;;;;;22.06;44.56;101630.25;7389272;19;1628;-40
2023/10/02 06:08:55;;;;;;;;;;;;;;;22.11;44.57;101624.47;7391786;19;1609;-40
